Search for airport 
image banner adimage banner adimage banner ad
image banner ad

CL99 - Watsonville Community Hospital

Located in Watsonville, United States

ICAO - CL99, IATA -

Data provided by Airmate  

General information

Coordinates: N36°55'31" W121°47'34"
Elevation is 111 feet MSL.
Magnetic variation is 16° East
View others Airports in California

Operational data

Special qualification required
Current time UTC:
Current local time:
Weather at : KWVI - Watsonville Muni ( 1 km )
METAR: KWVI 231522Z AUTO 15004KT 2SM BR OVC002 12/12 A2998 RMK AO2 T01220122
View NOTAMs / SUP AIP / TFR affecting this airport [VIEW]
Communications frequencies: [VIEW]

Runways:

Airport contact information

Address: Watsonville United States

Satellite view of CL99